Arauca, Arauca Santiago Perez Quiroz Airport (SKUC)

NameArauca Santiago Perez Quiroz Airport
CityArauca
CountryColombia
ICAOSKUC
IATAAUC
Altitude129 m
CoordinatesGoogle Map
Live Air TrafficLiveATC.net
METARSKUC 251700Z 04005KT 9999 FEW030 35/20 A2989
2020-04-25 17:00:00 Wind: North-Northeast (40°) 2.57 m/s - Visibility: > 10000 m - Temperature: 35 °C - Dew point: 20 °C - Humidity: 41.3% - Pressure: 1012.19 hPa

Sorry, no flights used the airport in this database.